Hauptseite
METAR-TAF:

METAR-TAF

Flughäfen :

Evansville, Indiana, Vereinigte Staaten

Breite: 38-02-35N, Länge: 087-31-13W, Höhe: 127 m

Beobachtung

Neuester Wetterbericht von vor 29 Minuten, um 14:54 UTC
Windstille
Temperatur 30°C
Luftfeuchtigkeit 59%
Luftdruck 1017 hPa
Sichtweite: 16.1 km
Himmel klar

METAR: KEVV 061454Z 00000KT 10SM CLR 30/21 A3002 RMK AO2 SLP160 T03000206 51010

Zeit: 10:23 (15:23 UTC)

Prognose

Neuester Wetterbericht von vor 4 Stunden und 3 Minuten, um 11:20 UTC
Gültige Prognose vom 06 um 12 UTC bis 07 um 12 UTC
Wind 4 kt aus Nordost
Sichtweite: 10 km
Leicht bewölkt in der Höhe von 25000 ft

TAF: KEVV 061120Z 0612/0712 05004KT P6SM FEW250

Wetterbeobachtungen und Prognosen von mehr als 4000 Flughäfen (METAR und TAF Bericht).

Die verfügbaren Stationen werden durch gelbe und rote Markierungen auf der Karte dargestellt.

Führen Sie die Maus auf sie, um den Namen der Station zu sehen.

Darauf klicken, um die Beobachtung von Wetterbeobachtungen und Prognosen zu sehen.

Um die Karte zu ändern : klicken Sie auf den grünen Tasten mit einem schwarzen Kreuz Zum Vergrößern, auf den grünen Button mit einem Gedankenstrich zu verkleinern, oder auf die grünen Pfeile für benachbarte Karten.


METAR-TAF: